• Join FlightAware (Why Join?)
  • Login
  • US Flag 
12:24AM EST


 

Airport Tracker/Info


-or-


 

Live Flight TrackerFlight Track Log ✈ SWA118 ✈ 23-Apr-2013 ✈ KMDW - KMCI

Flight Track Log - Related Links

Times and Time Zones

All times are in EDT time to prevent confusion due to time zone crossing. See the SWA118 flight status page for this flight to view local times or setup timezone preferences in your user account.

Time Position Orientation Groundspeed Altitude Reporting Facility
EDT Latitude Longitude Course Direction KTS MPH feet Rate Location/Type
06:19PM 41.7833 -87.7833 282° West 169 194 2,100  Level Chicago TRACON
06:20PM 41.7667 -87.8833 257° West 255 293 4,000 960 Climbing Chicago TRACON
06:21PM 41.7594 -87.9431 261° West 260 299 4,000  Level Chicago Center
06:22PM 41.7658 -88.0386 275° West 268 308 4,000 780 Level Chicago Center
06:23PM 41.7872 -88.1314 287° West 265 305 5,700 3,240 Climbing Chicago Center
06:24PM 41.8058 -88.2411 283° West 254 292 10,800 3,120 Climbing Chicago Center
06:25PM 41.8847 -88.3836 282° West  Level FlightAware Approximate
06:25PM 41.8111 -88.3367 274° West 259 298 12,200  Level Chicago Center
06:26PM 41.8164 -88.4361 274° West 269 310 14,600 2,460 Climbing Chicago Center
06:27PM 41.8011 -88.5514 260° West 318 366 17,300 2,760 Climbing Chicago Center
06:28PM 41.7747 -88.6708 254° West 335 386 20,400 2,700 Climbing Chicago Center
06:30PM 41.7439 -88.8131 254° West 334 384 23,000 1,620 Climbing Chicago Center
06:31PM 41.7164 -88.9336 253° West 340 391 23,800 1,440 Climbing Chicago Center
06:32PM 41.6889 -89.0581 254° West 349 402 26,000 1,920 Climbing Chicago Center
06:33PM 41.6592 -89.1869 253° West 363 418 27,800 1,860 Climbing Chicago Center
06:34PM 41.6297 -89.3225 254° West 379 436 29,900 2,340 Climbing Chicago Center
06:35PM 41.5911 -89.4764 252° West 370 426 32,700 2,280 Climbing Chicago Center
06:36PM 41.5442 -89.5883 241° Southwest 358 412 34,700 1,560 Climbing Chicago Center
06:37PM 41.4961 -89.7022 241° Southwest 354 407 36,000 600 Climbing Chicago Center
06:38PM 41.4500 -89.8153 241° Southwest 350 403 36,000  Level Chicago Center
06:39PM 41.4031 -89.9286 241° Southwest 352 405 36,000  Level Chicago Center
06:40PM 41.3472 -90.0603 241° Southwest 345 397 36,000  Level Chicago Center
06:41PM 41.2997 -90.1719 241° Southwest 345 397 36,000  Level Chicago Center
06:42PM 41.2525 -90.2839 241° Southwest 347 399 36,000  Level Chicago Center
06:43PM 41.2053 -90.3953 241° Southwest 347 399 36,000  Level Chicago Center
06:44PM 41.1581 -90.5061 241° Southwest 346 398 36,000  Level Chicago Center
06:45PM 41.1097 -90.6158 240° Southwest 345 397 36,000  Level Chicago Center
06:46PM 41.0533 -90.7492 241° Southwest 346 398 36,000  Level Chicago Center
06:47PM 41.0058 -90.8586 240° Southwest 345 397 36,000  Level Chicago Center
06:48PM 40.9575 -90.9678 240° Southwest 344 396 36,000  Level Chicago Center
06:49PM 40.9106 -91.0767 240° Southwest 343 395 36,000  Level Chicago Center
06:50PM 40.8633 -91.1864 240° Southwest 344 396 36,000  Level Chicago Center
06:51PM 40.8092 -91.3086 240° Southwest 342 394 36,000  Level Chicago Center
06:52PM 40.7619 -91.4164 240° Southwest 341 392 36,000  Level Chicago Center
06:53PM 40.7142 -91.5239 240° Southwest 343 395 36,000  Level Chicago Center
06:54PM 40.6661 -91.6319 240° Southwest 344 396 36,000  Level Chicago Center
06:55PM 40.6086 -91.7617 240° Southwest 344 396 36,000  Level Chicago Center
06:56PM 40.5972 -91.7825 234° Southwest 345 397 36,000  Level Kansas City Center
06:57PM 40.5500 -91.8903 240° Southwest 343 395 36,000 -420 Level Kansas City Center
06:58PM 40.5017 -91.9964 239° Southwest 342 394 35,200 -900 Descending Kansas City Center
06:59PM 40.4558 -92.1000 240° Southwest 334 384 34,200 -960 Descending Kansas City Center
07:00PM 40.4086 -92.2036 239° Southwest 332 382 33,300 -1,020 Descending Kansas City Center
07:01PM 40.3508 -92.3314 239° Southwest 339 390 32,100 -1,020 Descending Kansas City Center
07:02PM 40.3006 -92.4408 239° Southwest 345 397 31,200 -960 Descending Kansas City Center
07:03PM 40.2528 -92.5458 239° Southwest 349 402 30,200 -1,020 Descending Kansas City Center
07:04PM 40.1972 -92.6667 239° Southwest 348 400 29,100 -1,020 Descending Kansas City Center
07:05PM 40.1497 -92.7678 238° Southwest 343 395 28,100 -1,080 Descending Kansas City Center
07:06PM 40.0964 -92.8853 239° Southwest 338 389 27,000 -1,020 Descending Kansas City Center
07:07PM 40.0531 -92.9769 238° Southwest 334 384 26,100 -960 Descending Kansas City Center
07:08PM 40.0050 -93.0767 238° Southwest 328 377 25,100 -1,140 Descending Kansas City Center
07:09PM 39.9506 -93.1961 239° Southwest 322 371 23,800 -1,020 Descending Kansas City Center
07:10PM 39.9050 -93.2933 239° Southwest 318 366 23,000 -420 Descending Kansas City Center
07:11PM 39.8597 -93.3889 238° Southwest 314 361 23,000  Level Kansas City Center
07:12PM 39.8144 -93.4836 238° Southwest 312 359 23,000  Level Kansas City Center
07:13PM 39.7694 -93.5778 238° Southwest 310 357 23,000  Level Kansas City Center
07:14PM 39.7161 -93.6950 239° Southwest 314 361 23,000 -60 Level Kansas City Center
07:15PM 39.6697 -93.7914 238° Southwest 314 361 22,900 -1,080 Descending Kansas City Center
07:16PM 39.6275 -93.8803 238° Southwest 303 349 20,900 -2,220 Descending Kansas City Center
07:17PM 39.5772 -93.9814 237° Southwest 297 342 18,400 -2,220 Descending Kansas City Center
07:18PM 39.5336 -94.0681 237° Southwest 301 346 16,400 -2,220 Descending Kansas City Center
07:19PM 39.4839 -94.1675 237° Southwest 295 339 13,900 -2,160 Descending Kansas City Center
07:20PM 39.4389 -94.2544 236° Southwest 303 349 12,000 -960 Descending Kansas City Center
07:21PM 39.3981 -94.3350 237° Southwest 282 325 12,000  Level Kansas City Center
07:22PM 39.3539 -94.4222 237° Southwest 262 302 12,000 -780 Level Kansas City Center
07:23PM 39.3156 -94.4967 236° Southwest 260 299 10,500 -1,740 Descending Kansas City Center
07:24PM 39.2711 -94.5842 237° Southwest 260 299 8,500 -1,380 Descending Kansas City Center
07:26PM 39.2142 -94.6189 205° Southwest 245 282 7,700 -1,200 Descending Kansas City Center
07:27PM 39.1406 -94.6361 190° South 239 275 6,100 -1,080 Descending Kansas City Center
07:28PM 39.0867 -94.6656 203° Southwest 227 261 5,500 -900 Descending Kansas City Center
07:29PM 39.0919 -94.7450 275° West 199 229 4,300 -1,020 Descending Kansas City Center
07:30PM 39.1300 -94.7536 350° North 155 178 3,500 -660 Descending Kansas City Center
07:31PM 39.1681 -94.7428 12° North 147 169 3,000 -540 Descending Kansas City Center
07:32PM 39.2125 -94.7300 13° North 145 167 2,500 -600 Descending Kansas City Center
07:33PM 39.2481 -94.7200 12° North 138 159 1,800 -780 Descending Kansas City Center
07:34PM 39.2858 -94.7094 12° North 127 146 1,000 -780 Descending Kansas City Center